createdAt,value
2018-06-01T00:00:32.731Z,14.00
2018-06-01T00:02:58.758Z,14.00
2018-06-01T00:05:24.785Z,14.10
2018-06-01T00:07:51.565Z,14.10
2018-06-01T00:10:17.603Z,14.00
2018-06-01T00:12:43.642Z,14.10
2018-06-01T00:15:09.666Z,14.00
2018-06-01T00:17:35.710Z,14.10
2018-06-01T00:20:01.739Z,14.10
2018-06-01T00:22:27.787Z,14.10
2018-06-01T00:24:53.810Z,14.10
2018-06-01T00:27:19.846Z,14.00
2018-06-01T00:29:45.877Z,14.00
2018-06-01T00:32:11.923Z,14.00
2018-06-01T00:34:37.966Z,14.00
2018-06-01T00:37:04.000Z,14.00
2018-06-01T00:39:30.035Z,14.00
2018-06-01T00:41:56.067Z,13.90
2018-06-01T00:44:22.090Z,13.90
2018-06-01T00:46:48.126Z,13.90
2018-06-01T00:49:14.173Z,13.90
2018-06-01T00:51:40.203Z,13.80
2018-06-01T00:54:13.244Z,13.80
2018-06-01T00:56:39.287Z,13.80
2018-06-01T00:59:05.324Z,13.80
2018-06-01T01:01:31.354Z,13.80
2018-06-01T01:03:57.398Z,13.80
2018-06-01T01:06:23.426Z,13.80
2018-06-01T01:08:49.461Z,13.80
2018-06-01T01:11:15.493Z,13.70
2018-06-01T01:13:41.517Z,13.70
2018-06-01T01:16:07.556Z,13.70
2018-06-01T01:18:33.591Z,13.80
2018-06-01T01:20:59.626Z,13.70
2018-06-01T01:23:25.662Z,13.70
2018-06-01T01:25:51.702Z,13.70
2018-06-01T01:28:17.723Z,13.70
2018-06-01T01:30:43.742Z,13.70
2018-06-01T01:33:09.751Z,13.70
2018-06-01T01:35:36.492Z,13.70
2018-06-01T01:38:03.246Z,13.70
2018-06-01T01:40:29.985Z,13.80
2018-06-01T01:42:56.005Z,13.70
2018-06-01T01:45:22.003Z,13.80
2018-06-01T01:47:48.010Z,13.80
2018-06-01T01:50:14.750Z,13.90
2018-06-01T01:52:41.509Z,13.90
2018-06-01T01:55:08.246Z,13.90
2018-06-01T01:57:34.249Z,13.90
2018-06-01T02:00:00.253Z,13.90
2018-06-01T02:02:26.253Z,13.90
2018-06-01T02:04:52.265Z,13.90
2018-06-01T02:07:18.256Z,13.90
2018-06-01T02:09:44.289Z,13.90
2018-06-01T02:12:10.338Z,13.90
2018-06-01T02:14:36.365Z,13.90
2018-06-01T02:17:02.394Z,13.90
2018-06-01T02:19:28.415Z,13.90
2018-06-01T02:21:55.191Z,14.00
2018-06-01T02:24:21.215Z,13.90
2018-06-01T02:26:47.233Z,14.00
2018-06-01T02:29:13.995Z,14.00
2018-06-01T02:31:40.021Z,14.00
2018-06-01T02:34:06.790Z,14.00
2018-06-01T02:36:33.557Z,14.00
2018-06-01T02:38:59.656Z,14.00
2018-06-01T02:41:25.641Z,14.00
2018-06-01T02:43:51.675Z,14.00
2018-06-01T02:46:17.687Z,14.00
2018-06-01T02:48:43.725Z,13.90
2018-06-01T02:51:10.505Z,13.90
2018-06-01T02:53:36.527Z,13.90
2018-06-01T02:56:02.574Z,13.90
2018-06-01T02:58:28.585Z,14.00
2018-06-01T03:00:55.353Z,14.00
2018-06-01T03:03:21.372Z,14.00
2018-06-01T03:05:48.159Z,13.90
2018-06-01T03:08:14.211Z,13.90
2018-06-01T03:10:40.254Z,13.80
2018-06-01T03:13:06.281Z,13.60
2018-06-01T03:15:32.322Z,13.50
2018-06-01T03:17:58.349Z,13.50
2018-06-01T03:20:24.390Z,13.40
2018-06-01T03:22:50.407Z,13.40
2018-06-01T03:25:16.425Z,13.30
2018-06-01T03:27:42.447Z,13.30
2018-06-01T03:30:09.223Z,13.20
2018-06-01T03:32:35.241Z,13.20
2018-06-01T03:35:01.281Z,13.30
2018-06-01T03:37:27.307Z,13.30
2018-06-01T03:39:54.079Z,13.30
2018-06-01T03:42:20.117Z,13.30
2018-06-01T03:44:46.142Z,13.40
2018-06-01T03:47:12.157Z,13.40
2018-06-01T03:49:38.181Z,13.30
2018-06-01T03:52:04.225Z,13.40
2018-06-01T03:54:30.250Z,13.40
2018-06-01T03:56:56.296Z,13.30
2018-06-01T03:59:22.317Z,13.30
2018-06-01T04:01:48.358Z,13.40
2018-06-01T04:04:14.381Z,13.40
2018-06-01T04:06:40.415Z,13.40
2018-06-01T04:09:06.445Z,13.40
2018-06-01T04:11:32.483Z,13.40
2018-06-01T04:13:59.298Z,13.50
2018-06-01T04:16:25.329Z,13.50
2018-06-01T04:18:52.094Z,13.50
2018-06-01T04:21:18.123Z,13.40
2018-06-01T04:23:44.137Z,13.50
2018-06-01T04:26:10.903Z,13.50
2018-06-01T04:28:37.661Z,13.50
2018-06-01T04:31:03.697Z,13.50
2018-06-01T04:33:30.449Z,13.60
2018-06-01T04:35:56.481Z,13.60
2018-06-01T04:38:23.245Z,13.60
2018-06-01T04:40:49.307Z,13.60
2018-06-01T04:43:15.329Z,13.60
2018-06-01T04:45:41.345Z,13.70
2018-06-01T04:48:08.128Z,13.70
2018-06-01T04:50:34.149Z,13.70
2018-06-01T04:53:00.177Z,13.70
2018-06-01T04:55:26.954Z,13.80
2018-06-01T04:57:52.986Z,13.80
2018-06-01T05:00:19.009Z,13.80
2018-06-01T05:02:45.026Z,13.90
2018-06-01T05:05:11.791Z,13.90
2018-06-01T05:07:37.826Z,13.90
2018-06-01T05:10:11.455Z,14.00
2018-06-01T05:12:37.461Z,14.00
2018-06-01T05:15:04.214Z,14.10
2018-06-01T05:17:30.969Z,14.20
2018-06-01T05:19:57.719Z,14.20
2018-06-01T05:22:24.486Z,14.30
2018-06-01T05:24:51.227Z,14.40
2018-06-01T05:27:17.979Z,14.40
2018-06-01T05:29:44.785Z,14.40
2018-06-01T05:32:10.773Z,14.40
2018-06-01T05:34:37.530Z,14.50
2018-06-01T05:37:04.282Z,14.50
2018-06-01T05:39:31.027Z,14.60
2018-06-01T05:41:57.781Z,14.70
2018-06-01T05:44:24.523Z,14.80
2018-06-01T05:46:50.521Z,14.70
2018-06-01T05:49:16.539Z,14.90
2018-06-01T05:51:42.534Z,15.00
2018-06-01T05:54:08.537Z,15.00
2018-06-01T05:56:34.541Z,15.10
2018-06-01T05:59:00.537Z,15.40
2018-06-01T06:01:26.553Z,15.80
2018-06-01T06:03:52.621Z,16.10
2018-06-01T06:06:19.364Z,16.40
2018-06-01T06:08:45.427Z,16.30
2018-06-01T06:11:11.441Z,16.60
2018-06-01T06:13:37.491Z,16.90
2018-06-01T06:16:03.482Z,17.20
2018-06-01T06:18:29.486Z,17.30
2018-06-01T06:20:55.485Z,17.30
2018-06-01T06:23:22.233Z,17.30
2018-06-01T06:25:48.224Z,17.20
2018-06-01T06:28:14.240Z,17.00
2018-06-01T06:30:40.238Z,16.70
2018-06-01T06:33:06.257Z,16.60
2018-06-01T06:35:32.314Z,16.50
2018-06-01T06:37:59.084Z,16.50
2018-06-01T06:40:25.820Z,16.80
2018-06-01T06:42:51.822Z,16.80
2018-06-01T06:45:17.838Z,17.10
2018-06-01T06:47:43.834Z,17.30
2018-06-01T06:50:10.594Z,17.70
2018-06-01T06:52:37.338Z,18.80
2018-06-01T06:55:04.099Z,20.10
2018-06-01T06:57:30.831Z,21.00
2018-06-01T06:59:56.890Z,20.90
2018-06-01T07:02:23.633Z,22.50
2018-06-01T07:04:50.389Z,23.30
2018-06-01T07:07:17.141Z,23.70
2018-06-01T07:09:43.919Z,23.60
2018-06-01T07:12:09.946Z,23.50
2018-06-01T07:14:35.969Z,24.00
2018-06-01T07:17:02.747Z,25.00
2018-06-01T07:19:28.787Z,25.00
2018-06-01T07:21:54.826Z,25.00
2018-06-01T07:24:20.857Z,25.40
2018-06-01T07:26:46.874Z,26.00
2018-06-01T07:29:13.643Z,26.20
2018-06-01T07:31:39.663Z,26.20
2018-06-01T07:34:06.434Z,26.60
2018-06-01T07:36:32.456Z,26.60
2018-06-01T07:38:59.273Z,25.60
2018-06-01T07:41:25.293Z,25.60
2018-06-01T07:43:51.309Z,25.50
2018-06-01T07:46:17.361Z,24.80
2018-06-01T07:48:43.386Z,23.40
2018-06-01T07:51:09.417Z,23.70
2018-06-01T07:53:35.442Z,25.20
2018-06-01T07:56:01.530Z,25.40
2018-06-01T07:58:27.549Z,25.20
2018-06-01T08:00:53.585Z,25.30
2018-06-01T08:03:19.599Z,26.40
2018-06-01T08:05:45.624Z,27.50
2018-06-01T08:08:11.656Z,27.20
2018-06-01T08:10:37.670Z,26.40
2018-06-01T08:13:04.790Z,25.90
2018-06-01T08:15:30.809Z,25.90
2018-06-01T08:17:56.813Z,26.50
2018-06-01T08:20:22.831Z,26.90
2018-06-01T08:22:49.577Z,27.10
2018-06-01T08:25:16.333Z,27.10
2018-06-01T08:27:43.075Z,26.50
2018-06-01T08:30:09.090Z,26.40
2018-06-01T08:32:35.125Z,25.80
2018-06-01T08:35:01.119Z,25.20
2018-06-01T08:37:27.123Z,25.10
2018-06-01T08:39:53.876Z,25.10
2018-06-01T08:42:20.633Z,23.90
2018-06-01T08:44:47.382Z,22.90
2018-06-01T08:47:14.133Z,23.70
2018-06-01T08:49:40.869Z,25.70
2018-06-01T08:52:08.358Z,27.10
2018-06-01T08:54:35.106Z,28.40
2018-06-01T08:57:01.849Z,28.50
2018-06-01T08:59:27.861Z,28.40
2018-06-01T09:01:53.873Z,27.60
2018-06-01T09:04:19.874Z,26.70
2018-06-01T09:06:46.634Z,23.90
2018-06-01T09:09:13.370Z,23.90
2018-06-01T09:11:40.136Z,25.40
2018-06-01T09:14:06.883Z,26.50
2018-06-01T09:16:33.642Z,27.70
2018-06-01T09:19:00.426Z,28.20
2018-06-01T09:21:26.442Z,28.10
2018-06-01T09:23:52.453Z,27.30
2018-06-01T09:26:19.250Z,24.60
2018-06-01T09:28:45.961Z,23.50
2018-06-01T09:31:12.705Z,22.80
2018-06-01T09:33:38.704Z,22.70
2018-06-01T09:36:04.715Z,22.30
2018-06-01T09:38:30.729Z,21.80
2018-06-01T09:40:57.457Z,21.80
2018-06-01T09:43:23.453Z,21.80
2018-06-01T09:45:49.466Z,22.30
2018-06-01T09:48:15.482Z,23.30
2018-06-01T09:50:42.217Z,24.70
2018-06-01T09:53:08.227Z,24.70
2018-06-01T09:55:34.303Z,24.50
2018-06-01T09:58:00.241Z,24.20
2018-06-01T10:00:33.197Z,24.80
2018-06-01T10:02:59.252Z,24.80
2018-06-01T10:05:25.256Z,25.00
2018-06-01T10:07:51.269Z,26.00
2018-06-01T10:10:23.494Z,27.00
2018-06-01T10:12:49.518Z,27.50
2018-06-01T10:15:15.526Z,27.20
2018-06-01T10:17:41.549Z,26.20
2018-06-01T10:20:07.625Z,25.20
2018-06-01T10:22:33.628Z,24.30
2018-06-01T10:24:59.635Z,23.60
2018-06-01T10:27:26.402Z,23.70
2018-06-01T10:29:52.406Z,23.70
2018-06-01T10:32:18.405Z,24.80
2018-06-01T10:34:44.422Z,25.50
2018-06-01T10:37:10.426Z,26.30
2018-06-01T10:39:37.233Z,27.90
2018-06-01T10:42:03.938Z,28.90
2018-06-01T10:44:30.686Z,29.80
2018-06-01T10:46:57.442Z,30.10
2018-06-01T10:49:24.190Z,30.70
2018-06-01T10:51:53.735Z,30.80
2018-06-01T10:54:26.903Z,30.80
2018-06-01T10:56:53.092Z,31.20
2018-06-01T10:59:19.101Z,30.70
2018-06-01T11:01:45.093Z,29.80
2018-06-01T11:04:11.111Z,29.30
2018-06-01T11:06:37.110Z,27.90
2018-06-01T11:09:03.133Z,26.60
2018-06-01T11:11:29.897Z,27.50
2018-06-01T11:13:55.935Z,27.50
2018-06-01T11:16:21.973Z,28.30
2018-06-01T11:18:48.006Z,28.10
2018-06-01T11:21:14.075Z,27.00
2018-06-01T11:23:40.069Z,26.90
2018-06-01T11:26:06.109Z,27.90
2018-06-01T11:28:32.166Z,28.90
2018-06-01T11:30:58.189Z,29.40
2018-06-01T11:33:24.210Z,29.20
2018-06-01T11:35:50.237Z,29.10
2018-06-01T11:38:17.037Z,26.20
2018-06-01T11:40:43.062Z,26.10
2018-06-01T11:43:09.081Z,25.20
2018-06-01T11:45:35.117Z,24.60
2018-06-01T11:48:01.134Z,25.50
2018-06-01T11:50:27.907Z,26.70
2018-06-01T11:52:53.927Z,26.60
2018-06-01T11:55:20.696Z,27.10
2018-06-01T11:57:46.923Z,27.10
2018-06-01T12:00:12.949Z,27.30
2018-06-01T12:02:39.719Z,28.40
2018-06-01T12:05:05.751Z,28.30
2018-06-01T12:07:31.781Z,28.50
2018-06-01T12:09:58.538Z,28.80
2018-06-01T12:12:24.537Z,28.80
2018-06-01T12:14:50.541Z,29.00
2018-06-01T12:17:16.542Z,29.70
2018-06-01T12:19:42.554Z,30.20
2018-06-01T12:22:09.291Z,30.60
2018-06-01T12:24:35.300Z,30.60
2018-06-01T12:27:01.305Z,30.80
2018-06-01T12:29:27.343Z,30.40
2018-06-01T12:31:54.060Z,30.90
2018-06-01T12:34:20.058Z,30.90
2018-06-01T12:36:46.062Z,31.40
2018-06-01T12:39:12.066Z,31.40
2018-06-01T12:41:38.834Z,31.10
2018-06-01T12:44:05.573Z,30.40
2018-06-01T12:46:32.325Z,30.20
2018-06-01T12:48:58.326Z,30.10
2018-06-01T12:51:24.341Z,30.00
2018-06-01T12:53:50.349Z,30.10
2018-06-01T12:56:17.098Z,30.10
2018-06-01T12:58:43.846Z,30.50
2018-06-01T13:01:10.594Z,30.30
2018-06-01T13:03:37.345Z,31.00
2018-06-01T13:06:04.097Z,30.80
2018-06-01T13:08:30.845Z,30.60
2018-06-01T13:10:57.620Z,30.50
2018-06-01T13:13:23.645Z,30.50
2018-06-01T13:15:50.411Z,31.00
2018-06-01T13:18:16.446Z,31.00
2018-06-01T13:20:42.481Z,30.70
2018-06-01T13:23:08.520Z,30.70
2018-06-01T13:25:41.622Z,29.80
2018-06-01T13:28:07.641Z,28.40
2018-06-01T13:30:34.405Z,28.10
2018-06-01T13:33:01.185Z,28.80
2018-06-01T13:35:27.225Z,28.80
2018-06-01T13:37:53.245Z,29.40
2018-06-01T13:40:19.282Z,29.10
2018-06-01T13:42:45.326Z,29.40
2018-06-01T13:45:11.359Z,30.20
2018-06-01T13:47:37.458Z,31.10
2018-06-01T13:50:03.420Z,31.90
2018-06-01T13:52:29.453Z,32.40
2018-06-01T13:54:55.477Z,31.70
2018-06-01T13:57:21.514Z,31.50
2018-06-01T13:59:47.537Z,30.80
2018-06-01T14:02:14.305Z,29.90
2018-06-01T14:04:40.329Z,29.90
2018-06-01T14:07:07.157Z,28.10
2018-06-01T14:09:33.174Z,28.10
2018-06-01T14:11:59.175Z,28.40
2018-06-01T14:14:25.193Z,29.10
2018-06-01T14:16:51.198Z,29.80
2018-06-01T14:19:17.265Z,29.30
2018-06-01T14:21:43.214Z,28.50
2018-06-01T14:24:09.225Z,28.70
2018-06-01T14:26:35.976Z,29.30
2018-06-01T14:29:02.734Z,29.20
2018-06-01T14:31:29.513Z,29.20
2018-06-01T14:33:55.521Z,29.20
2018-06-01T14:36:22.321Z,26.60
2018-06-01T14:38:48.325Z,26.60
2018-06-01T14:41:14.329Z,26.20
2018-06-01T14:43:40.335Z,25.70
2018-06-01T14:46:06.337Z,25.20
2018-06-01T14:48:39.397Z,24.80
2018-06-01T14:51:05.409Z,25.30
2018-06-01T14:53:31.422Z,25.30
2018-06-01T14:55:57.426Z,25.70
2018-06-01T14:58:24.183Z,26.10
2018-06-01T15:00:50.185Z,26.00
2018-06-01T15:03:16.193Z,25.90
2018-06-01T15:05:42.194Z,26.40
2018-06-01T15:08:08.222Z,26.60
2018-06-01T15:10:34.246Z,26.50
2018-06-01T15:13:00.992Z,26.30
2018-06-01T15:15:27.746Z,26.00
2018-06-01T15:17:54.492Z,25.80
2018-06-01T15:20:20.549Z,25.70
2018-06-01T15:22:46.505Z,26.20
2018-06-01T15:25:12.507Z,26.80
2018-06-01T15:27:39.248Z,26.20
2018-06-01T15:30:05.257Z,26.10
2018-06-01T15:32:31.266Z,25.90
2018-06-01T15:34:57.284Z,25.80
2018-06-01T15:37:23.289Z,25.50
2018-06-01T15:39:49.294Z,25.40
2018-06-01T15:42:15.295Z,24.90
2018-06-01T15:44:41.313Z,24.60
2018-06-01T15:47:08.051Z,24.20
2018-06-01T15:49:34.801Z,24.00
2018-06-01T15:52:00.797Z,24.00
2018-06-01T15:54:26.810Z,23.90
2018-06-01T15:56:52.865Z,23.70
2018-06-01T15:59:18.866Z,23.40
2018-06-01T16:01:44.867Z,23.30
2018-06-01T16:04:10.885Z,23.00
2018-06-01T16:06:36.889Z,22.40
2018-06-01T16:09:02.902Z,21.90
2018-06-01T16:11:29.676Z,21.50
2018-06-01T16:13:55.705Z,21.40
2018-06-01T16:16:21.730Z,22.10
2018-06-01T16:18:48.485Z,22.70
2018-06-01T16:21:15.262Z,22.40
2018-06-01T16:23:41.291Z,22.40
2018-06-01T16:26:07.321Z,22.10
2018-06-01T16:28:33.355Z,21.70
2018-06-01T16:30:59.407Z,21.90
2018-06-01T16:33:25.559Z,22.70
2018-06-01T16:35:51.621Z,22.70
2018-06-01T16:38:17.638Z,22.40
2018-06-01T16:40:43.655Z,22.10
2018-06-01T16:43:09.697Z,21.90
2018-06-01T16:45:35.729Z,22.00
2018-06-01T16:48:01.783Z,22.20
2018-06-01T16:50:27.890Z,22.40
2018-06-01T16:52:53.923Z,22.20
2018-06-01T16:55:19.949Z,21.80
2018-06-01T16:57:46.706Z,20.60
2018-06-01T17:00:12.746Z,20.50
2018-06-01T17:02:38.789Z,20.10
2018-06-01T17:05:04.894Z,19.80
2018-06-01T17:07:30.921Z,19.60
2018-06-01T17:09:57.158Z,19.40
2018-06-01T17:12:23.181Z,19.40
2018-06-01T17:14:49.190Z,19.40
2018-06-01T17:17:15.202Z,19.40
2018-06-01T17:19:41.214Z,19.40
2018-06-01T17:22:08.014Z,19.30
2018-06-01T17:24:34.015Z,19.30
2018-06-01T17:27:00.893Z,19.10
2018-06-01T17:29:26.911Z,19.10
2018-06-01T17:31:53.669Z,19.30
2018-06-01T17:34:20.415Z,19.30
2018-06-01T17:36:47.165Z,19.40
2018-06-01T17:39:13.910Z,19.50
2018-06-01T17:41:40.681Z,19.60
2018-06-01T17:44:07.429Z,19.70
2018-06-01T17:46:34.177Z,19.90
2018-06-01T17:49:00.918Z,20.00
2018-06-01T17:51:26.929Z,19.90
2018-06-01T17:53:52.921Z,20.00
2018-06-01T17:56:18.945Z,20.00
2018-06-01T17:58:45.678Z,20.00
2018-06-01T18:01:11.686Z,20.00
2018-06-01T18:03:37.746Z,20.00
2018-06-01T18:06:03.749Z,20.00
2018-06-01T18:08:29.753Z,20.00
2018-06-01T18:10:55.777Z,20.00
2018-06-01T18:13:22.548Z,19.70
2018-06-01T18:15:49.025Z,19.70
2018-06-01T18:18:15.056Z,19.60
2018-06-01T18:20:41.069Z,19.40
2018-06-01T18:23:07.106Z,19.30
2018-06-01T18:25:33.135Z,19.30
2018-06-01T18:27:59.165Z,19.20
2018-06-01T18:30:25.195Z,19.20
2018-06-01T18:32:51.974Z,19.20
2018-06-01T18:35:18.002Z,19.20
2018-06-01T18:37:44.033Z,19.40
2018-06-01T18:40:10.067Z,19.50
2018-06-01T18:42:38.556Z,19.70
2018-06-01T18:45:08.801Z,19.70
2018-06-01T18:47:34.904Z,19.70
2018-06-01T18:50:00.933Z,19.60
2018-06-01T18:52:26.974Z,19.50
2018-06-01T18:54:52.993Z,19.40
2018-06-01T18:57:19.025Z,19.20
2018-06-01T18:59:45.055Z,19.10
2018-06-01T19:02:11.069Z,19.00
2018-06-01T19:04:37.094Z,18.90
2018-06-01T19:07:03.117Z,18.80
2018-06-01T19:09:29.157Z,18.70
2018-06-01T19:11:55.165Z,18.70
2018-06-01T19:14:21.171Z,18.60
2018-06-01T19:16:47.174Z,18.50
2018-06-01T19:19:13.208Z,18.50
2018-06-01T19:21:39.232Z,18.40
2018-06-01T19:24:05.253Z,18.30
2018-06-01T19:26:32.136Z,18.20
2018-06-01T19:28:58.198Z,18.20
2018-06-01T19:31:24.165Z,18.20
2018-06-01T19:33:50.924Z,18.10
2018-06-01T19:36:16.929Z,18.10
2018-06-01T19:38:42.934Z,18.10
2018-06-01T19:41:08.946Z,18.10
2018-06-01T19:43:35.694Z,18.00
2018-06-01T19:46:02.444Z,18.00
2018-06-01T19:48:29.259Z,18.00
2018-06-01T19:50:55.261Z,18.00
2018-06-01T19:53:21.266Z,17.90
2018-06-01T19:55:48.007Z,17.80
2018-06-01T19:58:14.017Z,17.80
2018-06-01T20:00:40.034Z,17.80
2018-06-01T20:03:06.036Z,17.70
2018-06-01T20:05:32.789Z,17.70
2018-06-01T20:07:59.533Z,17.70
2018-06-01T20:10:26.302Z,17.60
2018-06-01T20:12:53.115Z,17.60
2018-06-01T20:15:19.165Z,17.60
2018-06-01T20:17:45.256Z,17.60
2018-06-01T20:20:11.285Z,17.50
2018-06-01T20:22:37.363Z,17.50
2018-06-01T20:25:03.413Z,17.50
2018-06-01T20:27:29.442Z,17.50
2018-06-01T20:29:55.547Z,17.50
2018-06-01T20:32:22.258Z,17.50
2018-06-01T20:34:49.021Z,17.40
2018-06-01T20:37:15.075Z,17.40
2018-06-01T20:39:41.114Z,17.40
2018-06-01T20:42:07.162Z,17.40
2018-06-01T20:44:33.195Z,17.30
2018-06-01T20:46:59.336Z,17.10
2018-06-01T20:49:25.519Z,17.10
2018-06-01T20:51:51.692Z,17.00
2018-06-01T20:54:17.878Z,17.00
2018-06-01T20:56:43.942Z,16.90
2018-06-01T20:59:10.029Z,16.80
2018-06-01T21:01:36.104Z,16.80
2018-06-01T21:04:02.145Z,16.70
2018-06-01T21:06:28.285Z,16.70
2018-06-01T21:08:54.313Z,16.60
2018-06-01T21:11:20.431Z,16.70
2018-06-01T21:13:46.452Z,16.70
2018-06-01T21:16:12.465Z,16.60
2018-06-01T21:18:38.465Z,16.50
2018-06-01T21:21:04.485Z,16.40
2018-06-01T21:23:30.489Z,16.40
2018-06-01T21:25:56.509Z,16.40
2018-06-01T21:28:22.558Z,16.30
2018-06-01T21:30:48.559Z,16.20
2018-06-01T21:33:15.526Z,16.10
2018-06-01T21:35:41.600Z,16.00
2018-06-01T21:38:07.606Z,16.00
2018-06-01T21:40:33.614Z,15.90
2018-06-01T21:43:00.353Z,15.80
2018-06-01T21:45:26.466Z,15.70
2018-06-01T21:47:52.477Z,15.70
2018-06-01T21:50:18.481Z,15.60
2018-06-01T21:52:45.225Z,15.60
2018-06-01T21:55:11.236Z,15.60
2018-06-01T21:57:37.240Z,15.60
2018-06-01T22:00:03.312Z,15.60
2018-06-01T22:02:29.329Z,15.60
2018-06-01T22:04:55.375Z,15.60
2018-06-01T22:07:21.413Z,15.60
2018-06-01T22:09:47.421Z,15.50
2018-06-01T22:12:13.437Z,15.50
2018-06-01T22:14:40.190Z,15.40
2018-06-01T22:17:06.997Z,15.40
2018-06-01T22:19:33.125Z,15.40
2018-06-01T22:21:59.133Z,15.40
2018-06-01T22:24:25.310Z,15.40
2018-06-01T22:26:51.302Z,15.50
2018-06-01T22:29:17.369Z,15.60
2018-06-01T22:31:43.385Z,15.50
2018-06-01T22:34:09.385Z,15.50
2018-06-01T22:36:36.207Z,15.40
2018-06-01T22:39:02.247Z,15.40
2018-06-01T22:41:28.251Z,15.40
2018-06-01T22:43:54.278Z,15.40
2018-06-01T22:46:20.281Z,15.40
2018-06-01T22:48:46.286Z,15.40
2018-06-01T22:51:12.306Z,15.40
2018-06-01T22:53:38.315Z,15.40
2018-06-01T22:56:04.322Z,15.50
2018-06-01T22:58:30.329Z,15.40
2018-06-01T23:00:56.327Z,15.50
2018-06-01T23:03:22.324Z,15.50
2018-06-01T23:05:48.454Z,15.40
2018-06-01T23:08:14.461Z,15.40
2018-06-01T23:10:40.497Z,15.30
2018-06-01T23:13:06.532Z,15.20
2018-06-01T23:15:32.553Z,15.20
2018-06-01T23:17:58.589Z,15.20
2018-06-01T23:20:24.606Z,15.10
2018-06-01T23:22:50.641Z,15.20
2018-06-01T23:25:17.584Z,15.20
2018-06-01T23:27:44.345Z,15.20
2018-06-01T23:30:11.121Z,15.20
2018-06-01T23:32:37.145Z,15.20
2018-06-01T23:35:03.178Z,15.20
2018-06-01T23:37:29.197Z,15.30
2018-06-01T23:39:55.976Z,15.20
2018-06-01T23:42:22.002Z,15.20
2018-06-01T23:44:48.034Z,15.10
2018-06-01T23:47:14.876Z,14.90
2018-06-01T23:49:41.661Z,15.00
2018-06-01T23:52:07.677Z,14.90
2018-06-01T23:54:34.452Z,14.90
2018-06-01T23:57:00.470Z,14.90
2018-06-01T23:59:27.255Z,14.90
